createdAt,value
2017-11-11T00:18:09.774Z,9.248187999999999
2017-11-11T00:58:19.890Z,9.185709999999998
2017-11-11T01:18:24.911Z,9.185709999999998
2017-11-11T01:58:35.023Z,9.185709999999998
2017-11-11T02:18:40.081Z,9.123232
2017-11-11T02:58:50.273Z,9.123232
2017-11-11T03:18:55.229Z,9.123232
2017-11-11T03:39:00.338Z,9.123232
2017-11-11T03:59:05.338Z,9.060754
2017-11-11T04:19:10.451Z,9.060754
2017-11-11T04:39:15.503Z,9.060754
2017-11-11T05:19:25.542Z,9.060754
2017-11-11T05:39:30.603Z,9.060754
2017-11-11T05:59:35.752Z,8.998275999999999
2017-11-11T06:19:40.707Z,8.998275999999999
2017-11-11T06:39:45.754Z,8.998275999999999
2017-11-11T06:59:50.826Z,8.998275999999999
2017-11-11T07:19:55.865Z,8.998275999999999
2017-11-11T07:40:00.969Z,8.935263999999998
2017-11-11T08:00:05.958Z,8.935263999999998
2017-11-11T08:20:11.026Z,8.935263999999998
2017-11-11T09:00:21.120Z,8.935263999999998
2017-11-11T09:20:26.167Z,8.935263999999998
2017-11-11T09:40:31.217Z,8.935263999999998
2017-11-11T10:00:36.265Z,8.935263999999998
2017-11-11T10:20:41.320Z,8.998275999999999
2017-11-11T10:40:46.350Z,8.998275999999999
2017-11-11T11:00:51.401Z,8.935263999999998
2017-11-11T11:20:56.463Z,8.935263999999998
2017-11-11T11:41:01.503Z,8.935263999999998
2017-11-11T12:01:06.575Z,8.935263999999998
2017-11-11T12:21:11.603Z,8.998275999999999
2017-11-11T12:41:16.646Z,8.998275999999999
2017-11-11T13:01:20.687Z,8.998275999999999
2017-11-11T13:21:25.738Z,8.998275999999999
2017-11-11T13:41:30.794Z,8.998275999999999
2017-11-11T14:01:35.857Z,8.998275999999999
2017-11-11T14:21:40.936Z,8.998275999999999
2017-11-11T14:41:45.973Z,8.998275999999999
2017-11-11T15:01:51.002Z,8.998275999999999
2017-11-11T15:21:56.052Z,8.998275999999999
2017-11-11T15:42:01.098Z,8.998275999999999
2017-11-11T16:02:06.158Z,8.998275999999999
2017-11-11T16:22:11.206Z,8.935263999999998
2017-11-11T16:42:16.247Z,8.935263999999998
2017-11-11T17:02:21.396Z,8.935263999999998
2017-11-11T17:22:26.346Z,8.935263999999998
2017-11-11T17:42:31.398Z,8.935263999999998
2017-11-11T18:02:36.450Z,8.935263999999998
2017-11-11T18:22:41.510Z,8.872786
2017-11-11T18:42:46.572Z,8.935263999999998
2017-11-11T19:02:51.698Z,8.935263999999998
2017-11-11T19:22:56.671Z,8.872786
2017-11-11T19:43:01.822Z,8.872786
2017-11-11T20:03:06.828Z,8.872786
2017-11-11T20:43:16.878Z,8.872786
2017-11-11T21:03:21.911Z,8.872786
2017-11-11T21:23:26.957Z,8.872786
2017-11-11T21:43:32.026Z,8.872786
2017-11-11T22:03:37.067Z,8.872786
2017-11-11T22:23:42.102Z,8.872786
2017-11-11T22:43:47.166Z,8.872786
2017-11-11T23:03:52.256Z,8.810308
2017-11-11T23:23:57.245Z,8.810308
2017-11-11T23:44:02.310Z,8.810308
